createdAt,value
2023-02-27T00:00:28.503Z,2.70
2023-02-27T00:02:56.099Z,5.20
2023-02-27T00:05:23.096Z,3.17
2023-02-27T00:07:51.182Z,6.50
2023-02-27T00:10:18.576Z,3.80
2023-02-27T00:12:45.898Z,4.77
2023-02-27T00:15:20.040Z,4.30
2023-02-27T00:17:47.115Z,3.90
2023-02-27T00:20:18.122Z,4.50
2023-02-27T00:22:46.191Z,6.10
2023-02-27T00:25:14.455Z,6.77
2023-02-27T00:27:42.648Z,3.60
2023-02-27T00:30:15.465Z,6.27
2023-02-27T00:32:43.035Z,5.20
2023-02-27T00:35:12.135Z,5.63
2023-02-27T00:37:40.415Z,3.57
2023-02-27T00:40:11.734Z,6.23
2023-02-27T00:42:38.812Z,3.03
2023-02-27T00:45:10.978Z,4.97
2023-02-27T00:47:38.114Z,4.30
2023-02-27T00:50:05.669Z,3.93
2023-02-27T00:52:33.949Z,5.07
2023-02-27T00:55:01.169Z,3.23
2023-02-27T00:57:28.851Z,4.00
2023-02-27T00:59:55.761Z,4.03
2023-02-27T01:02:22.846Z,4.30
2023-02-27T01:04:50.064Z,5.73
2023-02-27T01:07:17.400Z,3.73
2023-02-27T01:09:44.787Z,5.67
2023-02-27T01:12:11.975Z,3.83
2023-02-27T01:14:38.972Z,5.30
2023-02-27T01:17:06.109Z,4.60
2023-02-27T01:19:33.238Z,4.23
2023-02-27T01:22:00.228Z,6.67
2023-02-27T01:24:27.361Z,6.20
2023-02-27T01:26:54.665Z,4.30
2023-02-27T01:29:21.848Z,4.43
2023-02-27T01:31:49.158Z,5.83
2023-02-27T01:34:17.568Z,3.97
2023-02-27T01:36:44.547Z,4.77
2023-02-27T01:39:11.611Z,4.10
2023-02-27T01:41:40.817Z,3.73
2023-02-27T01:44:14.745Z,4.43
2023-02-27T01:46:42.592Z,3.17
2023-02-27T01:49:12.104Z,3.70
2023-02-27T01:52:08.741Z,5.03
2023-02-27T01:54:40.682Z,3.23
2023-02-27T01:57:09.842Z,4.60
2023-02-27T01:59:41.757Z,4.27
2023-02-27T02:02:26.145Z,5.03
2023-02-27T02:04:57.026Z,3.40
2023-02-27T02:07:26.487Z,3.70
2023-02-27T02:09:59.245Z,3.50
2023-02-27T02:12:35.947Z,4.60
2023-02-27T02:15:05.654Z,6.10
2023-02-27T02:17:51.099Z,4.73
2023-02-27T02:20:54.938Z,3.97
2023-02-27T02:23:39.969Z,3.67
2023-02-27T02:26:54.071Z,4.37
2023-02-27T02:30:03.181Z,5.10
2023-02-27T02:33:18.635Z,4.23
2023-02-27T02:36:22.533Z,3.47
2023-02-27T02:39:18.525Z,3.57
2023-02-27T02:42:00.987Z,3.87
2023-02-27T02:45:10.683Z,2.33
2023-02-27T02:47:46.678Z,1.67
2023-02-27T02:51:18.840Z,3.37
2023-02-27T02:54:04.828Z,4.53
2023-02-27T02:57:16.167Z,3.10
2023-02-27T02:59:56.436Z,2.50
2023-02-27T03:02:33.118Z,4.13
2023-02-27T03:05:10.651Z,5.80
2023-02-27T03:08:20.505Z,5.30
2023-02-27T03:10:59.663Z,5.33
2023-02-27T03:13:46.550Z,4.47
2023-02-27T03:16:25.299Z,4.17
2023-02-27T03:19:05.668Z,5.90
2023-02-27T03:21:47.792Z,3.17
2023-02-27T03:24:31.794Z,2.73
2023-02-27T03:27:02.992Z,6.20
2023-02-27T03:29:57.460Z,3.10
2023-02-27T03:32:57.029Z,4.07
2023-02-27T03:35:45.022Z,3.63
2023-02-27T03:38:37.674Z,3.53
2023-02-27T03:41:27.790Z,3.47
2023-02-27T03:44:25.955Z,4.77
2023-02-27T03:46:53.143Z,2.80
2023-02-27T03:49:20.804Z,6.23
2023-02-27T03:51:50.011Z,4.10
2023-02-27T03:54:37.329Z,6.17
2023-02-27T03:57:15.174Z,2.90
2023-02-27T03:59:43.174Z,3.97
2023-02-27T04:02:10.398Z,3.83
2023-02-27T04:04:39.336Z,3.50
2023-02-27T04:07:52.677Z,2.40
2023-02-27T04:10:53.622Z,3.50
2023-02-27T04:13:48.553Z,2.77
2023-02-27T04:16:47.562Z,2.83
2023-02-27T04:19:31.237Z,3.17
2023-02-27T04:22:24.583Z,3.30
2023-02-27T04:25:16.872Z,3.53
2023-02-27T04:28:06.449Z,3.70
2023-02-27T04:31:00.043Z,3.33
2023-02-27T04:33:37.648Z,3.40
2023-02-27T04:36:36.633Z,2.50
2023-02-27T04:39:19.581Z,5.20
2023-02-27T04:42:06.866Z,3.97
2023-02-27T04:44:39.361Z,4.40
2023-02-27T04:47:11.325Z,4.47
2023-02-27T04:49:48.722Z,3.80
2023-02-27T04:52:25.600Z,5.40
2023-02-27T04:55:22.256Z,5.53
2023-02-27T04:58:11.556Z,3.37
2023-02-27T05:00:44.504Z,3.10
2023-02-27T05:03:26.192Z,5.67
2023-02-27T05:06:00.150Z,6.17
2023-02-27T05:08:49.438Z,5.20
2023-02-27T05:11:25.011Z,5.07
2023-02-27T05:14:04.187Z,4.30
2023-02-27T05:16:55.510Z,3.87
2023-02-27T05:19:23.185Z,5.87
2023-02-27T05:22:36.377Z,4.87
2023-02-27T05:25:27.990Z,4.33
2023-02-27T05:28:09.189Z,3.37
2023-02-27T05:31:02.415Z,6.37
2023-02-27T05:33:51.897Z,4.20
2023-02-27T05:36:28.631Z,4.37
2023-02-27T05:39:10.380Z,3.03
2023-02-27T05:41:52.183Z,4.00
2023-02-27T05:44:23.447Z,2.67
2023-02-27T05:46:58.952Z,5.50
2023-02-27T05:49:33.668Z,4.63
2023-02-27T05:52:12.183Z,6.30
2023-02-27T05:54:50.577Z,5.50
2023-02-27T05:57:35.970Z,5.57
2023-02-27T06:00:37.703Z,5.23
2023-02-27T06:03:04.957Z,4.60
2023-02-27T06:05:32.830Z,3.77
2023-02-27T06:08:01.047Z,6.83
2023-02-27T06:10:28.101Z,7.77
2023-02-27T06:12:55.159Z,4.20
2023-02-27T06:15:23.846Z,4.60
2023-02-27T06:17:51.024Z,4.97
2023-02-27T06:20:18.956Z,4.57
2023-02-27T06:22:47.170Z,6.43
2023-02-27T06:25:14.418Z,7.73
2023-02-27T06:27:41.371Z,4.63
2023-02-27T06:30:12.274Z,5.00
2023-02-27T06:32:39.896Z,3.03
2023-02-27T06:35:11.136Z,4.50
2023-02-27T06:37:38.541Z,4.80
2023-02-27T06:40:11.673Z,4.13
2023-02-27T06:42:44.978Z,3.90
2023-02-27T06:45:14.699Z,3.27
2023-02-27T06:47:42.743Z,6.47
2023-02-27T06:50:13.923Z,4.70
2023-02-27T06:52:41.697Z,5.70
2023-02-27T06:55:10.421Z,4.27
2023-02-27T06:57:38.033Z,2.43
2023-02-27T07:00:10.160Z,4.20
2023-02-27T07:02:37.611Z,5.30
2023-02-27T07:05:07.968Z,2.83
2023-02-27T07:07:39.272Z,4.73
2023-02-27T07:10:15.693Z,5.40
2023-02-27T07:12:43.536Z,3.73
2023-02-27T07:15:11.185Z,7.00
2023-02-27T07:17:38.342Z,7.50
2023-02-27T07:20:10.311Z,6.17
2023-02-27T07:22:40.601Z,5.97
2023-02-27T07:25:12.495Z,4.40
2023-02-27T07:27:39.521Z,6.07
2023-02-27T07:30:08.174Z,2.93
2023-02-27T07:32:38.326Z,4.97
2023-02-27T07:35:05.928Z,4.90
2023-02-27T07:37:32.874Z,5.57
2023-02-27T07:40:00.148Z,3.13
2023-02-27T07:42:27.248Z,3.80
2023-02-27T07:44:54.927Z,3.83
2023-02-27T07:47:21.822Z,4.23
2023-02-27T07:49:48.971Z,5.03
2023-02-27T07:52:16.115Z,6.40
2023-02-27T07:54:43.108Z,3.70
2023-02-27T07:57:11.321Z,7.63
2023-02-27T07:59:38.355Z,6.73
2023-02-27T08:02:06.444Z,5.67
2023-02-27T08:04:33.750Z,5.63
2023-02-27T08:07:00.778Z,5.17
2023-02-27T08:09:27.872Z,5.80
2023-02-27T08:11:58.326Z,3.90
2023-02-27T08:14:25.401Z,5.70
2023-02-27T08:16:52.450Z,3.90
2023-02-27T08:19:19.405Z,5.27
2023-02-27T08:21:46.593Z,3.43
2023-02-27T08:24:14.457Z,4.87
2023-02-27T08:26:41.533Z,4.40
2023-02-27T08:29:10.520Z,4.37
2023-02-27T08:31:37.666Z,5.00
2023-02-27T08:34:10.262Z,3.90
2023-02-27T08:36:39.544Z,6.17
2023-02-27T08:39:09.268Z,4.80
2023-02-27T08:41:37.495Z,5.80
2023-02-27T08:44:05.049Z,5.70
2023-02-27T08:46:32.082Z,2.67
2023-02-27T08:48:59.496Z,3.77
2023-02-27T08:51:26.948Z,8.73
2023-02-27T08:53:58.767Z,5.73
2023-02-27T08:56:28.333Z,4.07
2023-02-27T08:58:56.271Z,4.13
2023-02-27T09:01:23.982Z,4.97
2023-02-27T09:03:51.039Z,4.33
2023-02-27T09:06:19.884Z,4.23
2023-02-27T09:08:46.926Z,3.33
2023-02-27T09:11:13.917Z,4.60
2023-02-27T09:13:40.912Z,6.80
2023-02-27T09:16:10.195Z,4.67
2023-02-27T09:18:37.407Z,3.33
2023-02-27T09:21:04.613Z,4.07
2023-02-27T09:23:32.380Z,3.40
2023-02-27T09:30:33.360Z,3.77
2023-02-27T09:33:00.528Z,5.37
2023-02-27T09:35:27.796Z,7.10
2023-02-27T09:37:57.327Z,3.27
2023-02-27T09:40:31.821Z,4.83
2023-02-27T09:43:22.045Z,3.37
2023-02-27T09:45:56.084Z,4.63
2023-02-27T09:48:39.234Z,4.47
2023-02-27T09:51:08.150Z,6.23
2023-02-27T09:53:47.501Z,3.00
2023-02-27T09:56:24.146Z,3.87
2023-02-27T09:59:36.376Z,3.20
2023-02-27T10:02:46.091Z,4.47
2023-02-27T10:05:48.219Z,3.17
2023-02-27T10:08:34.783Z,4.90
2023-02-27T10:11:14.183Z,4.07
2023-02-27T10:14:04.326Z,5.20
2023-02-27T10:16:34.727Z,3.13
2023-02-27T10:19:14.025Z,5.00
2023-02-27T10:21:46.720Z,2.10
2023-02-27T10:24:36.959Z,3.27
2023-02-27T10:27:14.618Z,3.47
2023-02-27T10:29:41.811Z,4.40
2023-02-27T10:32:28.938Z,3.97
2023-02-27T10:35:13.396Z,2.93
2023-02-27T10:37:49.898Z,2.70
2023-02-27T10:40:20.731Z,3.27
2023-02-27T10:42:49.009Z,3.10
2023-02-27T10:45:16.704Z,2.40
2023-02-27T10:47:44.435Z,2.80
2023-02-27T10:50:38.424Z,3.03
2023-02-27T10:53:23.854Z,3.17
2023-02-27T10:56:14.594Z,2.07
2023-02-27T10:58:41.701Z,2.17
2023-02-27T11:01:11.534Z,2.47
2023-02-27T11:03:44.561Z,4.97
2023-02-27T11:06:25.678Z,2.50
2023-02-27T11:09:18.702Z,3.03
2023-02-27T11:11:45.767Z,3.77
2023-02-27T11:14:31.238Z,5.10
2023-02-27T11:17:02.658Z,3.57
2023-02-27T11:19:39.122Z,2.10
2023-02-27T11:22:18.650Z,4.23
2023-02-27T11:24:47.760Z,2.00
2023-02-27T11:27:29.050Z,2.77
2023-02-27T11:30:04.128Z,1.87
2023-02-27T11:32:53.724Z,4.27
2023-02-27T11:35:39.525Z,4.07
2023-02-27T11:38:28.844Z,2.90
2023-02-27T11:41:12.429Z,5.00
2023-02-27T11:43:51.208Z,2.57
2023-02-27T11:46:46.174Z,2.90
2023-02-27T11:49:32.860Z,1.37
2023-02-27T11:52:19.802Z,2.53
2023-02-27T11:54:57.375Z,4.10
2023-02-27T11:57:40.013Z,2.80
2023-02-27T12:00:42.267Z,3.97
2023-02-27T12:03:57.719Z,2.17
2023-02-27T12:06:42.239Z,3.90
2023-02-27T12:10:00.075Z,4.30
2023-02-27T12:12:49.222Z,2.30
2023-02-27T12:15:51.160Z,2.80
2023-02-27T12:18:47.996Z,1.60
2023-02-27T12:21:40.284Z,2.80
2023-02-27T12:24:38.187Z,6.03
2023-02-27T12:27:23.265Z,2.13
2023-02-27T12:30:03.645Z,2.83
2023-02-27T12:32:50.298Z,3.27
2023-02-27T12:35:29.298Z,3.10
2023-02-27T12:38:05.278Z,2.17
2023-02-27T12:41:09.159Z,3.27
2023-02-27T12:43:58.355Z,3.03
2023-02-27T12:47:04.966Z,2.53
2023-02-27T12:49:56.491Z,1.73
2023-02-27T12:52:55.512Z,2.70
2023-02-27T12:55:44.182Z,5.50
2023-02-27T12:58:45.827Z,3.27
2023-02-27T13:01:46.370Z,4.20
2023-02-27T13:04:28.114Z,2.20
2023-02-27T13:07:23.187Z,3.13
2023-02-27T13:10:15.700Z,4.43
2023-02-27T13:13:00.270Z,3.00
2023-02-27T13:16:00.714Z,2.70
2023-02-27T13:18:50.526Z,3.13
2023-02-27T13:22:04.454Z,1.60
2023-02-27T13:24:35.452Z,2.87
2023-02-27T13:27:19.733Z,2.33
2023-02-27T13:30:05.473Z,2.97
2023-02-27T13:32:49.312Z,2.17
2023-02-27T13:36:23.883Z,3.30
2023-02-27T13:38:55.566Z,3.80
2023-02-27T13:41:26.530Z,1.60
2023-02-27T13:43:58.953Z,2.03
2023-02-27T13:46:33.856Z,2.60
2023-02-27T13:49:05.320Z,4.07
2023-02-27T13:51:38.535Z,3.67
2023-02-27T13:54:14.391Z,4.33
2023-02-27T13:56:49.096Z,2.17
2023-02-27T13:59:42.067Z,2.17
2023-02-27T14:02:12.890Z,4.17
2023-02-27T14:04:50.740Z,3.27
2023-02-27T14:07:24.115Z,2.30
2023-02-27T14:10:11.403Z,3.93
2023-02-27T14:12:46.188Z,2.57
2023-02-27T14:15:22.196Z,2.60
2023-02-27T14:18:12.631Z,1.37
2023-02-27T14:20:42.681Z,2.80
2023-02-27T14:23:16.831Z,3.57
2023-02-27T14:25:52.108Z,3.77
2023-02-27T14:28:51.689Z,3.13
2023-02-27T14:31:36.628Z,1.03
2023-02-27T14:34:08.681Z,3.07
2023-02-27T14:36:47.245Z,2.80
2023-02-27T14:39:27.105Z,1.90
2023-02-27T14:42:36.810Z,2.93
2023-02-27T14:45:14.062Z,2.23
2023-02-27T14:47:41.894Z,1.33
2023-02-27T14:50:35.969Z,1.83
2023-02-27T14:53:05.613Z,1.67
2023-02-27T14:55:36.868Z,1.47
2023-02-27T14:58:19.929Z,2.90
2023-02-27T15:01:09.961Z,2.13
2023-02-27T15:03:46.970Z,1.27
2023-02-27T15:06:36.009Z,2.57
2023-02-27T15:09:04.678Z,1.93
2023-02-27T15:11:31.878Z,1.77
2023-02-27T15:14:04.674Z,2.27
2023-02-27T15:16:40.422Z,1.83
2023-02-27T15:19:31.451Z,2.27
2023-02-27T15:22:05.166Z,1.90
2023-02-27T15:24:49.666Z,2.33
2023-02-27T15:27:23.372Z,1.73
2023-02-27T15:29:56.698Z,3.57
2023-02-27T15:32:31.047Z,2.70
2023-02-27T15:35:03.596Z,3.53
2023-02-27T15:37:33.957Z,2.27
2023-02-27T15:40:11.794Z,2.43
2023-02-27T15:42:39.700Z,2.33
2023-02-27T15:45:08.264Z,4.10
2023-02-27T15:47:41.403Z,2.13
2023-02-27T15:50:26.321Z,1.57
2023-02-27T15:53:19.360Z,1.90
2023-02-27T15:55:53.830Z,2.60
2023-02-27T15:58:26.392Z,1.90
2023-02-27T16:01:37.235Z,1.90
2023-02-27T16:04:20.831Z,2.20
2023-02-27T16:07:14.802Z,3.03
2023-02-27T16:09:44.029Z,1.67
2023-02-27T16:12:37.822Z,1.83
2023-02-27T16:15:32.714Z,1.53
2023-02-27T16:18:42.282Z,3.07
2023-02-27T16:21:16.901Z,2.03
2023-02-27T16:23:46.022Z,1.80
2023-02-27T16:26:30.378Z,2.60
2023-02-27T16:29:05.404Z,3.53
2023-02-27T16:31:35.853Z,2.37
2023-02-27T16:34:13.548Z,2.93
2023-02-27T16:36:52.001Z,1.83
2023-02-27T16:39:19.314Z,4.60
2023-02-27T16:41:46.349Z,1.40
2023-02-27T16:44:13.512Z,2.93
2023-02-27T16:46:40.460Z,4.90
2023-02-27T16:49:23.180Z,2.03
2023-02-27T16:51:51.051Z,3.73
2023-02-27T16:54:19.031Z,5.83
2023-02-27T16:56:48.225Z,2.10
2023-02-27T16:59:44.166Z,3.00
2023-02-27T17:02:15.280Z,2.13
2023-02-27T17:04:47.961Z,2.10
2023-02-27T17:07:17.605Z,2.57
2023-02-27T17:09:46.443Z,2.17
2023-02-27T17:12:13.931Z,3.37
2023-02-27T17:14:41.405Z,2.33
2023-02-27T17:17:11.575Z,2.37
2023-02-27T17:19:39.180Z,3.27
2023-02-27T17:22:07.091Z,2.10
2023-02-27T17:24:34.779Z,2.87
2023-02-27T17:27:01.909Z,1.73
2023-02-27T17:29:28.998Z,2.40
2023-02-27T17:31:57.461Z,2.63
2023-02-27T17:34:24.830Z,2.67
2023-02-27T17:36:52.785Z,3.57
2023-02-27T17:39:19.935Z,2.53
2023-02-27T17:41:47.125Z,2.37
2023-02-27T17:44:15.941Z,3.80
2023-02-27T17:46:42.965Z,2.93
2023-02-27T17:49:10.116Z,3.80
2023-02-27T17:51:37.231Z,5.57
2023-02-27T17:54:08.533Z,2.37
2023-02-27T17:56:39.281Z,2.43
2023-02-27T17:59:08.872Z,3.33
2023-02-27T18:01:37.254Z,2.10
2023-02-27T18:04:06.995Z,3.20
2023-02-27T18:06:33.983Z,2.77
2023-02-27T18:09:01.006Z,6.97
2023-02-27T18:11:28.113Z,2.67
2023-02-27T18:13:55.235Z,2.87
2023-02-27T18:16:22.486Z,3.70
2023-02-27T18:18:51.116Z,4.07
2023-02-27T18:21:21.671Z,3.03
2023-02-27T18:23:51.535Z,4.00
2023-02-27T18:26:32.862Z,4.03
2023-02-27T18:29:09.006Z,2.93
2023-02-27T18:31:45.877Z,3.87
2023-02-27T18:34:13.283Z,7.27
2023-02-27T18:36:40.437Z,3.80
2023-02-27T18:39:09.797Z,3.03
2023-02-27T18:41:38.665Z,3.33
2023-02-27T18:44:08.365Z,3.50
2023-02-27T18:46:38.117Z,3.03
2023-02-27T18:49:06.531Z,2.40
2023-02-27T18:51:33.686Z,3.20
2023-02-27T18:54:00.884Z,5.13
2023-02-27T18:56:30.899Z,5.10
2023-02-27T18:59:05.325Z,4.00
2023-02-27T19:01:37.868Z,3.23
2023-02-27T19:04:09.541Z,3.57
2023-02-27T19:06:40.993Z,6.07
2023-02-27T19:09:13.150Z,4.63
2023-02-27T19:11:40.287Z,4.10
2023-02-27T19:14:11.872Z,2.93
2023-02-27T19:16:39.288Z,4.80
2023-02-27T19:19:08.024Z,5.90
2023-02-27T19:21:36.370Z,5.83
2023-02-27T19:24:07.191Z,3.07
2023-02-27T19:26:38.628Z,4.03
2023-02-27T19:29:07.690Z,3.90
2023-02-27T19:31:35.008Z,3.40
2023-02-27T19:34:03.058Z,3.83
2023-02-27T19:36:31.668Z,4.67
2023-02-27T19:39:01.344Z,2.70
2023-02-27T19:41:29.553Z,3.10
2023-02-27T19:43:57.013Z,4.33
2023-02-27T19:46:29.037Z,4.80
2023-02-27T19:49:05.035Z,3.13
2023-02-27T19:51:32.348Z,4.27
2023-02-27T19:53:59.976Z,3.43
2023-02-27T19:56:30.006Z,3.73
2023-02-27T19:58:57.818Z,5.37
2023-02-27T20:01:30.960Z,4.23
2023-02-27T20:04:01.126Z,4.20
2023-02-27T20:06:31.514Z,3.10
2023-02-27T20:09:00.392Z,3.47
2023-02-27T20:11:31.333Z,4.27
2023-02-27T20:13:58.895Z,3.80
2023-02-27T20:16:28.241Z,3.63
2023-02-27T20:18:56.258Z,3.37
2023-02-27T20:21:24.903Z,2.80
2023-02-27T20:23:52.239Z,3.63
2023-02-27T20:26:44.760Z,4.80
2023-02-27T20:29:20.646Z,3.47
2023-02-27T20:31:50.951Z,3.10
2023-02-27T20:34:22.496Z,3.27
2023-02-27T20:36:51.343Z,5.63
2023-02-27T20:39:20.142Z,4.50
2023-02-27T20:41:49.055Z,6.40
2023-02-27T20:44:16.496Z,4.63
2023-02-27T20:46:48.916Z,5.27
2023-02-27T20:49:17.052Z,3.80
2023-02-27T20:51:45.379Z,4.67
2023-02-27T20:54:20.064Z,4.10
2023-02-27T20:56:52.172Z,4.17
2023-02-27T20:59:23.342Z,3.90
2023-02-27T21:01:53.531Z,5.03
2023-02-27T21:04:43.462Z,3.93
2023-02-27T21:07:16.676Z,4.60
2023-02-27T21:09:45.115Z,5.07
2023-02-27T21:12:12.826Z,4.73
2023-02-27T21:14:44.282Z,5.20
2023-02-27T21:17:13.707Z,4.57
2023-02-27T21:19:40.724Z,5.50
2023-02-27T21:22:11.469Z,5.90
2023-02-27T21:24:38.672Z,6.53
2023-02-27T21:27:05.763Z,5.70
2023-02-27T21:29:33.981Z,5.40
2023-02-27T21:32:01.224Z,5.70
2023-02-27T21:34:29.832Z,6.27
2023-02-27T21:36:57.173Z,7.97
2023-02-27T21:39:30.774Z,6.80
2023-02-27T21:42:01.481Z,7.47
2023-02-27T21:44:29.694Z,10.40
2023-02-27T21:46:57.826Z,9.40
2023-02-27T21:49:28.894Z,6.10
2023-02-27T21:51:57.094Z,5.80
2023-02-27T21:54:24.924Z,6.67
2023-02-27T21:56:52.194Z,6.63
2023-02-27T21:59:20.721Z,6.80
2023-02-27T22:01:48.545Z,6.53
2023-02-27T22:04:19.368Z,6.63
2023-02-27T22:06:48.633Z,7.97
2023-02-27T22:09:15.835Z,6.70
2023-02-27T22:11:43.835Z,6.60
2023-02-27T22:14:12.424Z,6.60
2023-02-27T22:16:40.995Z,9.27
2023-02-27T22:19:12.592Z,6.63
2023-02-27T22:21:40.514Z,6.20
2023-02-27T22:24:08.831Z,7.73
2023-02-27T22:26:36.652Z,7.83
2023-02-27T22:29:07.858Z,7.63
2023-02-27T22:31:37.949Z,7.90
2023-02-27T22:34:19.241Z,10.70
2023-02-27T22:36:52.657Z,7.10
2023-02-27T22:39:20.231Z,5.77
2023-02-27T22:41:47.168Z,5.83
2023-02-27T22:44:15.935Z,5.83
2023-02-27T22:46:47.946Z,6.63
2023-02-27T22:49:22.006Z,6.07
2023-02-27T22:51:51.635Z,6.70
2023-02-27T22:54:21.416Z,9.00
2023-02-27T22:56:52.432Z,7.33
2023-02-27T22:59:21.127Z,9.67
2023-02-27T23:01:49.355Z,8.47
2023-02-27T23:04:18.060Z,6.50
2023-02-27T23:06:45.459Z,7.43
2023-02-27T23:09:20.197Z,6.00
2023-02-27T23:11:47.298Z,7.93
2023-02-27T23:14:15.038Z,7.47
2023-02-27T23:16:46.027Z,6.77
2023-02-27T23:19:20.655Z,8.40
2023-02-27T23:21:48.321Z,8.73
2023-02-27T23:24:18.778Z,10.03
2023-02-27T23:26:50.339Z,7.67
2023-02-27T23:29:17.486Z,6.53
2023-02-27T23:31:44.530Z,8.70
2023-02-27T23:34:11.649Z,7.13
2023-02-27T23:36:39.416Z,9.67
2023-02-27T23:39:08.883Z,9.37
2023-02-27T23:41:36.292Z,6.33
2023-02-27T23:44:22.674Z,7.23
2023-02-27T23:46:49.861Z,7.00
2023-02-27T23:49:16.872Z,6.40
2023-02-27T23:51:44.386Z,7.33
2023-02-27T23:54:11.633Z,7.70
2023-02-27T23:56:38.696Z,8.07
2023-02-27T23:59:06.950Z,9.67
